createdAt,value
2019-02-14T00:01:12.824Z,4.20
2019-02-14T00:03:39.146Z,4.45
2019-02-14T00:06:05.543Z,5.15
2019-02-14T00:08:31.836Z,5.00
2019-02-14T00:10:58.330Z,4.37
2019-02-14T00:13:24.623Z,4.67
2019-02-14T00:15:51.070Z,5.33
2019-02-14T00:18:17.376Z,4.28
2019-02-14T00:20:43.662Z,5.08
2019-02-14T00:23:09.965Z,4.92
2019-02-14T00:25:36.251Z,6.72
2019-02-14T00:28:02.542Z,5.87
2019-02-14T00:30:28.859Z,5.65
2019-02-14T00:32:55.250Z,3.75
2019-02-14T00:35:25.089Z,4.12
2019-02-14T00:37:49.663Z,4.03
2019-02-14T00:40:16.068Z,4.47
2019-02-14T00:42:42.573Z,4.40
2019-02-14T00:45:08.992Z,4.75
2019-02-14T00:47:35.273Z,5.37
2019-02-14T00:50:01.807Z,4.65
2019-02-14T00:52:28.191Z,5.30
2019-02-14T00:54:54.698Z,5.47
2019-02-14T00:57:21.130Z,5.12
2019-02-14T00:59:47.434Z,4.67
2019-02-14T01:02:13.850Z,5.55
2019-02-14T01:04:40.246Z,4.95
2019-02-14T01:07:08.046Z,5.17
2019-02-14T01:09:34.346Z,5.92
2019-02-14T01:12:00.638Z,4.83
2019-02-14T01:14:27.073Z,4.70
2019-02-14T01:16:54.396Z,4.10
2019-02-14T01:19:20.693Z,4.05
2019-02-14T01:21:47.110Z,4.85
2019-02-14T01:24:13.402Z,4.47
2019-02-14T01:26:39.822Z,6.03
2019-02-14T01:29:06.117Z,4.55
2019-02-14T01:31:32.405Z,4.90
2019-02-14T01:33:58.720Z,4.25
2019-02-14T01:36:25.012Z,5.15
2019-02-14T01:38:51.442Z,6.55
2019-02-14T01:41:17.748Z,6.58
2019-02-14T01:43:44.146Z,4.35
2019-02-14T01:46:10.665Z,4.87
2019-02-14T01:48:37.067Z,4.72
2019-02-14T01:51:03.494Z,5.10
2019-02-14T01:53:29.881Z,4.35
2019-02-14T01:55:56.174Z,6.00
2019-02-14T01:58:22.581Z,4.25
2019-02-14T02:00:48.869Z,5.78
2019-02-14T02:03:15.180Z,5.62
2019-02-14T02:05:41.477Z,5.67
2019-02-14T02:08:09.030Z,4.95
2019-02-14T02:10:35.654Z,4.85
2019-02-14T02:13:02.052Z,4.95
2019-02-14T02:15:28.386Z,4.95
2019-02-14T02:17:54.715Z,6.30
2019-02-14T02:20:21.189Z,4.72
2019-02-14T02:22:47.506Z,4.95
2019-02-14T02:25:13.797Z,4.75
2019-02-14T02:27:40.113Z,4.65
2019-02-14T02:30:09.701Z,6.20
2019-02-14T02:32:35.989Z,4.60
2019-02-14T02:35:03.509Z,4.33
2019-02-14T02:37:29.910Z,5.08
2019-02-14T02:39:56.245Z,7.90
2019-02-14T02:42:22.549Z,5.12
2019-02-14T02:44:48.842Z,4.92
2019-02-14T02:47:15.260Z,6.12
2019-02-14T02:49:41.549Z,4.35
2019-02-14T02:52:07.879Z,5.12
2019-02-14T02:54:34.383Z,5.92
2019-02-14T02:57:00.802Z,7.20
2019-02-14T02:59:27.236Z,4.83
2019-02-14T03:01:53.494Z,7.78
2019-02-14T03:04:20.074Z,6.85
2019-02-14T03:06:46.311Z,5.40
2019-02-14T03:09:12.708Z,5.03
2019-02-14T03:11:39.218Z,5.60
2019-02-14T03:14:05.502Z,10.25
2019-02-14T03:16:32.329Z,6.70
2019-02-14T03:18:58.634Z,7.08
2019-02-14T03:21:24.922Z,5.40
2019-02-14T03:23:51.341Z,6.53
2019-02-14T03:26:17.727Z,6.50
2019-02-14T03:28:44.045Z,4.83
2019-02-14T03:31:10.336Z,5.22
2019-02-14T03:33:36.834Z,5.83
2019-02-14T03:36:03.229Z,4.20
2019-02-14T03:38:29.522Z,4.95
2019-02-14T03:40:55.957Z,5.22
2019-02-14T03:43:22.266Z,4.97
2019-02-14T03:45:48.677Z,6.08
2019-02-14T03:48:14.974Z,5.15
2019-02-14T03:50:41.270Z,5.22
2019-02-14T03:53:07.553Z,5.97
2019-02-14T03:55:33.870Z,4.37
2019-02-14T03:58:00.163Z,5.08
2019-02-14T04:00:26.549Z,4.15
2019-02-14T04:02:52.866Z,4.50
2019-02-14T04:05:19.262Z,4.37
2019-02-14T04:07:45.554Z,5.47
2019-02-14T04:10:13.169Z,4.72
2019-02-14T04:12:39.561Z,11.78
2019-02-14T04:15:09.558Z,7.00
2019-02-14T04:17:35.870Z,14.40
2019-02-14T04:20:05.309Z,17.25
2019-02-14T04:22:31.614Z,17.50
2019-02-14T04:24:57.905Z,15.32
2019-02-14T04:27:24.239Z,10.13
2019-02-14T04:29:50.593Z,11.85
2019-02-14T04:32:16.881Z,13.38
2019-02-14T04:34:43.306Z,6.87
2019-02-14T04:37:09.594Z,25.52
2019-02-14T04:39:35.909Z,25.23
2019-02-14T04:42:02.238Z,17.02
2019-02-14T04:44:28.534Z,17.07
2019-02-14T04:46:55.533Z,14.45
2019-02-14T04:49:21.830Z,19.27
2019-02-14T04:51:48.540Z,12.03
2019-02-14T04:54:21.721Z,6.92
2019-02-14T04:56:56.638Z,10.18
2019-02-14T04:59:22.968Z,9.43
2019-02-14T05:01:49.372Z,8.18
2019-02-14T05:04:15.793Z,8.30
2019-02-14T05:06:44.347Z,9.88
2019-02-14T05:09:10.284Z,9.23
2019-02-14T05:11:36.598Z,11.57
2019-02-14T05:14:02.994Z,7.03
2019-02-14T05:16:29.443Z,8.95
2019-02-14T05:18:55.739Z,7.85
2019-02-14T05:21:23.293Z,6.50
2019-02-14T05:23:49.609Z,11.28
2019-02-14T05:26:16.022Z,9.08
2019-02-14T05:28:42.337Z,7.97
2019-02-14T05:31:08.868Z,9.95
2019-02-14T05:33:35.246Z,11.90
2019-02-14T05:36:01.655Z,7.85
2019-02-14T05:38:27.945Z,6.45
2019-02-14T05:40:54.278Z,8.35
2019-02-14T05:43:20.695Z,8.15
2019-02-14T05:45:46.986Z,7.80
2019-02-14T05:48:13.406Z,7.25
2019-02-14T05:50:39.825Z,6.33
2019-02-14T05:53:06.441Z,5.40
2019-02-14T05:55:33.130Z,5.85
2019-02-14T05:57:59.422Z,6.53
2019-02-14T06:00:25.722Z,6.62
2019-02-14T06:02:52.020Z,6.00
2019-02-14T06:05:18.332Z,5.95
2019-02-14T06:07:44.725Z,4.33
2019-02-14T06:10:11.022Z,4.00
2019-02-14T06:12:37.343Z,5.97
2019-02-14T06:15:08.530Z,4.47
2019-02-14T06:17:34.862Z,7.33
2019-02-14T06:20:02.538Z,8.60
2019-02-14T06:22:28.833Z,4.83
2019-02-14T06:24:55.136Z,4.40
2019-02-14T06:27:21.430Z,5.85
2019-02-14T06:29:47.843Z,8.95
2019-02-14T06:32:14.141Z,4.92
2019-02-14T06:34:40.437Z,5.53
2019-02-14T06:37:09.639Z,6.05
2019-02-14T06:39:34.930Z,7.53
2019-02-14T06:42:01.273Z,6.60
2019-02-14T06:44:27.674Z,5.87
2019-02-14T06:46:54.062Z,4.47
2019-02-14T06:49:20.358Z,4.33
2019-02-14T06:51:46.653Z,6.70
2019-02-14T06:54:13.070Z,5.60
2019-02-14T06:56:39.358Z,4.03
2019-02-14T06:59:05.653Z,5.45
2019-02-14T07:01:31.941Z,7.17
2019-02-14T07:03:58.234Z,4.75
2019-02-14T07:06:24.657Z,4.35
2019-02-14T07:08:51.158Z,4.15
2019-02-14T07:11:17.450Z,5.22
2019-02-14T07:13:43.739Z,4.45
2019-02-14T07:16:10.038Z,5.25
2019-02-14T07:18:36.478Z,4.47
2019-02-14T07:21:02.863Z,4.33
2019-02-14T07:23:29.159Z,4.70
2019-02-14T07:25:55.452Z,4.95
2019-02-14T07:28:21.744Z,4.20
2019-02-14T07:30:48.509Z,6.37
2019-02-14T07:33:14.802Z,3.92
2019-02-14T07:35:41.207Z,4.28
2019-02-14T07:38:07.505Z,4.12
2019-02-14T07:40:33.805Z,4.78
2019-02-14T07:43:00.202Z,4.78
2019-02-14T07:45:26.622Z,4.45
2019-02-14T07:47:52.918Z,7.53
2019-02-14T07:50:19.324Z,4.35
2019-02-14T07:52:45.641Z,3.77
2019-02-14T07:55:12.960Z,4.47
2019-02-14T07:57:39.636Z,4.15
2019-02-14T08:00:09.441Z,4.00
2019-02-14T08:02:35.745Z,4.33
2019-02-14T08:05:02.263Z,4.08
2019-02-14T08:07:35.753Z,4.55
2019-02-14T08:09:56.856Z,5.05
2019-02-14T08:12:23.258Z,4.35
2019-02-14T08:14:49.758Z,4.50
2019-02-14T08:17:16.082Z,3.92
2019-02-14T08:19:42.383Z,4.78
2019-02-14T08:22:08.889Z,3.35
2019-02-14T08:24:36.093Z,4.78
2019-02-14T08:27:02.494Z,3.70
2019-02-14T08:29:28.913Z,5.12
2019-02-14T08:31:55.212Z,5.72
2019-02-14T08:34:21.498Z,3.72
2019-02-14T08:36:47.906Z,4.15
2019-02-14T08:39:14.441Z,4.17
2019-02-14T08:41:40.719Z,5.20
2019-02-14T08:44:07.006Z,4.22
2019-02-14T08:46:34.859Z,5.75
2019-02-14T08:49:01.170Z,5.97
2019-02-14T08:51:27.459Z,4.28
2019-02-14T08:53:53.778Z,9.43
2019-02-14T08:56:26.496Z,4.95
2019-02-14T08:58:52.769Z,4.35
2019-02-14T09:01:25.400Z,5.05
2019-02-14T09:04:02.160Z,10.25
2019-02-14T09:06:34.589Z,3.60
2019-02-14T09:09:05.804Z,3.85
2019-02-14T09:11:38.063Z,4.22
2019-02-14T09:14:11.997Z,4.15
2019-02-14T09:16:43.349Z,6.97
2019-02-14T09:19:15.214Z,6.35
2019-02-14T09:21:47.994Z,3.47
2019-02-14T09:24:19.755Z,4.72
2019-02-14T09:26:50.057Z,4.60
2019-02-14T09:29:20.301Z,3.62
2019-02-14T09:31:46.793Z,6.03
2019-02-14T09:34:13.555Z,3.92
2019-02-14T09:36:39.881Z,5.42
2019-02-14T09:39:06.172Z,4.33
2019-02-14T09:41:32.589Z,6.17
2019-02-14T09:43:58.918Z,7.40
2019-02-14T09:46:25.350Z,4.28
2019-02-14T09:48:51.864Z,4.08
2019-02-14T09:51:18.154Z,4.60
2019-02-14T09:53:44.554Z,3.92
2019-02-14T09:56:10.967Z,3.12
2019-02-14T09:58:42.076Z,4.40
2019-02-14T10:01:08.736Z,3.33
2019-02-14T10:03:35.282Z,5.22
2019-02-14T10:06:01.547Z,2.87
2019-02-14T10:08:27.854Z,3.00
2019-02-14T10:10:54.149Z,3.02
2019-02-14T10:13:20.437Z,3.33
2019-02-14T10:15:46.743Z,3.55
2019-02-14T10:18:13.434Z,3.12
2019-02-14T10:20:39.865Z,3.12
2019-02-14T10:23:06.163Z,9.13
2019-02-14T10:25:34.234Z,11.97
2019-02-14T10:28:00.547Z,8.03
2019-02-14T10:30:26.833Z,7.50
2019-02-14T10:32:53.170Z,7.03
2019-02-14T10:35:19.455Z,5.72
2019-02-14T10:37:45.855Z,5.67
2019-02-14T10:40:13.965Z,9.75
2019-02-14T10:42:40.281Z,9.18
2019-02-14T10:45:14.749Z,9.55
2019-02-14T10:47:41.042Z,8.48
2019-02-14T10:50:09.038Z,6.33
2019-02-14T10:52:41.401Z,7.72
2019-02-14T10:55:09.786Z,7.03
2019-02-14T10:57:36.198Z,6.12
2019-02-14T11:00:08.003Z,7.78
2019-02-14T11:02:34.313Z,8.10
2019-02-14T11:05:02.011Z,6.80
2019-02-14T11:07:28.650Z,10.45
2019-02-14T11:09:55.297Z,13.15
2019-02-14T11:12:21.910Z,6.05
2019-02-14T11:14:48.501Z,7.10
2019-02-14T11:17:21.183Z,8.60
2019-02-14T11:19:47.689Z,10.72
2019-02-14T11:22:14.009Z,4.45
2019-02-14T11:24:40.406Z,6.42
2019-02-14T11:27:06.766Z,4.12
2019-02-14T11:29:33.059Z,5.37
2019-02-14T11:31:59.374Z,5.00
2019-02-14T11:34:25.769Z,6.10
2019-02-14T11:36:52.065Z,3.72
2019-02-14T11:39:18.486Z,3.95
2019-02-14T11:41:44.798Z,6.50
2019-02-14T11:44:11.225Z,7.80
2019-02-14T11:46:37.613Z,5.03
2019-02-14T11:49:03.905Z,6.28
2019-02-14T11:51:31.166Z,15.45
2019-02-14T11:53:57.455Z,4.55
2019-02-14T11:56:23.786Z,7.70
2019-02-14T11:58:50.198Z,3.10
2019-02-14T12:01:16.474Z,6.20
2019-02-14T12:03:43.705Z,14.00
2019-02-14T12:06:09.998Z,15.68
2019-02-14T12:08:36.335Z,13.90
2019-02-14T12:11:02.748Z,19.35
2019-02-14T12:13:29.039Z,22.48
2019-02-14T12:15:55.344Z,11.12
2019-02-14T12:18:21.647Z,15.58
2019-02-14T12:20:48.068Z,8.65
2019-02-14T12:23:14.472Z,10.60
2019-02-14T12:25:40.854Z,13.35
2019-02-14T12:28:07.397Z,9.53
2019-02-14T12:30:33.790Z,4.75
2019-02-14T12:33:00.129Z,10.82
2019-02-14T12:35:26.431Z,6.83
2019-02-14T12:38:02.135Z,6.10
2019-02-14T12:40:38.419Z,5.25
2019-02-14T12:43:05.605Z,4.85
2019-02-14T12:45:31.936Z,7.03
2019-02-14T12:47:58.459Z,3.47
2019-02-14T12:50:24.771Z,5.12
2019-02-14T12:52:51.064Z,5.33
2019-02-14T12:55:17.456Z,3.50
2019-02-14T12:57:43.861Z,3.72
2019-02-14T13:00:14.596Z,2.92
2019-02-14T13:02:41.530Z,3.60
2019-02-14T13:05:08.049Z,3.55
2019-02-14T13:07:34.329Z,3.25
2019-02-14T13:10:00.682Z,3.37
2019-02-14T13:12:27.872Z,3.60
2019-02-14T13:14:54.524Z,4.65
2019-02-14T13:17:20.938Z,3.25
2019-02-14T13:19:47.240Z,3.62
2019-02-14T13:22:13.552Z,2.67
2019-02-14T13:24:39.944Z,5.10
2019-02-14T13:27:06.446Z,2.92
2019-02-14T13:29:33.766Z,2.92
2019-02-14T13:32:00.057Z,2.12
2019-02-14T13:34:26.486Z,4.08
2019-02-14T13:37:01.404Z,5.70
2019-02-14T13:39:29.286Z,3.67
2019-02-14T13:41:48.991Z,7.70
2019-02-14T13:44:15.333Z,5.80
2019-02-14T13:46:41.638Z,7.97
2019-02-14T13:49:07.965Z,8.65
2019-02-14T13:51:34.406Z,13.08
2019-02-14T13:54:00.813Z,13.22
2019-02-14T13:56:27.306Z,7.50
2019-02-14T13:58:53.842Z,10.18
2019-02-14T14:01:20.137Z,6.17
2019-02-14T14:03:46.432Z,5.92
2019-02-14T14:06:12.751Z,8.65
2019-02-14T14:08:39.039Z,6.20
2019-02-14T14:11:05.353Z,5.67
2019-02-14T14:13:31.746Z,4.47
2019-02-14T14:15:58.037Z,8.68
2019-02-14T14:18:24.643Z,7.15
2019-02-14T14:20:51.133Z,5.87
2019-02-14T14:23:17.570Z,6.60
2019-02-14T14:25:43.860Z,5.58
2019-02-14T14:28:10.155Z,8.53
2019-02-14T14:30:36.609Z,5.85
2019-02-14T14:33:03.105Z,10.23
2019-02-14T14:35:29.526Z,14.07
2019-02-14T14:37:55.926Z,13.70
2019-02-14T14:40:22.222Z,14.83
2019-02-14T14:42:50.438Z,13.70
2019-02-14T14:45:24.647Z,12.07
2019-02-14T14:47:50.956Z,14.73
2019-02-14T14:50:17.258Z,13.65
2019-02-14T14:52:43.574Z,13.70
2019-02-14T14:55:09.969Z,11.63
2019-02-14T14:57:36.260Z,14.43
2019-02-14T15:00:04.571Z,11.18
2019-02-14T15:02:30.869Z,10.72
2019-02-14T15:04:57.289Z,13.22
2019-02-14T15:07:23.573Z,12.45
2019-02-14T15:09:57.235Z,13.68
2019-02-14T15:12:17.953Z,14.25
2019-02-14T15:14:44.246Z,17.50
2019-02-14T15:17:10.674Z,14.65
2019-02-14T15:19:36.966Z,17.57
2019-02-14T15:22:03.370Z,13.62
2019-02-14T15:24:29.679Z,13.70
2019-02-14T15:26:56.088Z,15.40
2019-02-14T15:29:22.655Z,14.05
2019-02-14T15:31:49.158Z,11.03
2019-02-14T15:34:15.557Z,9.10
2019-02-14T15:36:41.857Z,12.60
2019-02-14T15:39:08.270Z,12.28
2019-02-14T15:41:34.586Z,12.10
2019-02-14T15:44:00.946Z,11.57
2019-02-14T15:46:27.247Z,10.32
2019-02-14T15:48:53.545Z,8.13
2019-02-14T15:51:20.110Z,10.20
2019-02-14T15:53:46.678Z,10.43
2019-02-14T15:56:12.925Z,10.10
2019-02-14T15:58:39.335Z,9.43
2019-02-14T16:01:05.649Z,8.93
2019-02-14T16:03:31.934Z,9.70
2019-02-14T16:05:58.228Z,8.00
2019-02-14T16:08:24.557Z,8.33
2019-02-14T16:10:54.043Z,9.55
2019-02-14T16:13:18.947Z,8.35
2019-02-14T16:15:45.258Z,6.53
2019-02-14T16:18:11.683Z,7.80
2019-02-14T16:20:39.787Z,8.93
2019-02-14T16:23:09.006Z,9.60
2019-02-14T16:25:35.309Z,9.33
2019-02-14T16:28:02.766Z,8.00
2019-02-14T16:30:30.914Z,10.85
2019-02-14T16:32:57.950Z,8.13
2019-02-14T16:35:24.241Z,7.58
2019-02-14T16:37:50.729Z,9.03
2019-02-14T16:40:17.777Z,6.65
2019-02-14T16:42:44.150Z,7.60
2019-02-14T16:45:11.373Z,7.35
2019-02-14T16:47:37.669Z,7.78
2019-02-14T16:50:07.061Z,10.05
2019-02-14T16:52:33.373Z,8.18
2019-02-14T16:54:59.803Z,13.70
2019-02-14T16:57:33.066Z,9.83
2019-02-14T16:59:59.315Z,11.33
2019-02-14T17:02:25.814Z,7.17
2019-02-14T17:04:52.250Z,7.62
2019-02-14T17:07:18.653Z,6.00
2019-02-14T17:09:45.043Z,10.53
2019-02-14T17:12:11.345Z,6.10
2019-02-14T17:14:37.642Z,6.10
2019-02-14T17:17:03.954Z,7.00
2019-02-14T17:19:30.250Z,6.92
2019-02-14T17:21:56.639Z,9.18
2019-02-14T17:24:27.624Z,11.20
2019-02-14T17:26:54.030Z,11.05
2019-02-14T17:29:20.321Z,5.87
2019-02-14T17:31:46.642Z,5.67
2019-02-14T17:34:17.512Z,5.67
2019-02-14T17:36:44.195Z,5.08
2019-02-14T17:39:10.521Z,4.58
2019-02-14T17:41:37.011Z,4.55
2019-02-14T17:44:03.534Z,5.33
2019-02-14T17:46:30.094Z,6.37
2019-02-14T17:48:56.868Z,6.80
2019-02-14T17:51:23.713Z,5.25
2019-02-14T17:53:52.095Z,5.20
2019-02-14T17:56:18.562Z,5.10
2019-02-14T17:58:53.642Z,8.28
2019-02-14T18:01:20.321Z,14.78
2019-02-14T18:03:47.443Z,7.17
2019-02-14T18:06:13.773Z,7.40
2019-02-14T18:08:40.442Z,7.12
2019-02-14T18:11:06.842Z,5.10
2019-02-14T18:13:33.158Z,7.78
2019-02-14T18:15:59.562Z,5.30
2019-02-14T18:18:25.854Z,10.38
2019-02-14T18:20:52.167Z,7.33
2019-02-14T18:23:18.449Z,10.28
2019-02-14T18:25:44.773Z,7.47
2019-02-14T18:28:11.073Z,10.80
2019-02-14T18:30:37.369Z,8.80
2019-02-14T18:33:03.991Z,7.25
2019-02-14T18:35:30.442Z,8.00
2019-02-14T18:37:56.853Z,8.20
2019-02-14T18:40:23.257Z,10.38
2019-02-14T18:42:49.751Z,7.45
2019-02-14T18:45:16.062Z,8.18
2019-02-14T18:47:42.361Z,7.03
2019-02-14T18:50:10.708Z,6.37
2019-02-14T18:52:36.992Z,6.62
2019-02-14T18:55:05.585Z,5.20
2019-02-14T18:57:31.997Z,7.22
2019-02-14T19:00:14.095Z,8.78
2019-02-14T19:02:40.464Z,8.90
2019-02-14T19:05:09.058Z,8.38
2019-02-14T19:07:35.407Z,6.03
2019-02-14T19:10:07.878Z,7.25
2019-02-14T19:12:34.175Z,8.18
2019-02-14T19:15:00.596Z,5.42
2019-02-14T19:17:27.106Z,7.47
2019-02-14T19:19:53.571Z,6.35
2019-02-14T19:22:19.851Z,9.88
2019-02-14T19:24:46.139Z,8.10
2019-02-14T19:27:12.429Z,5.60
2019-02-14T19:29:38.953Z,7.25
2019-02-14T19:32:05.346Z,6.40
2019-02-14T19:34:31.661Z,6.12
2019-02-14T19:36:58.094Z,6.97
2019-02-14T19:39:24.748Z,6.53
2019-02-14T19:41:51.005Z,7.15
2019-02-14T19:44:17.526Z,9.85
2019-02-14T19:46:43.944Z,8.55
2019-02-14T19:49:10.246Z,7.97
2019-02-14T19:51:36.550Z,8.10
2019-02-14T19:54:04.360Z,6.95
2019-02-14T19:56:31.265Z,7.45
2019-02-14T19:58:57.666Z,5.97
2019-02-14T20:01:24.084Z,7.17
2019-02-14T20:03:50.369Z,11.53
2019-02-14T20:06:16.688Z,8.38
2019-02-14T20:08:42.981Z,6.55
2019-02-14T20:11:09.269Z,9.10
2019-02-14T20:13:35.681Z,6.40
2019-02-14T20:16:02.083Z,11.03
2019-02-14T20:18:28.405Z,9.80
2019-02-14T20:20:54.697Z,7.05
2019-02-14T20:23:21.167Z,7.35
2019-02-14T20:25:47.472Z,8.35
2019-02-14T20:28:13.717Z,8.45
2019-02-14T20:30:40.046Z,8.80
2019-02-14T20:33:06.355Z,17.12
2019-02-14T20:35:32.630Z,13.70
2019-02-14T20:37:58.967Z,10.68
2019-02-14T20:40:25.278Z,15.93
2019-02-14T20:42:51.574Z,17.32
2019-02-14T20:45:18.027Z,20.55
2019-02-14T20:47:44.391Z,14.03
2019-02-14T20:50:12.433Z,14.23
2019-02-14T20:52:38.844Z,11.03
2019-02-14T20:55:08.265Z,9.00
2019-02-14T20:57:34.799Z,9.90
2019-02-14T21:00:01.081Z,11.35
2019-02-14T21:02:27.520Z,9.75
2019-02-14T21:04:53.919Z,15.18
2019-02-14T21:07:20.257Z,11.43
2019-02-14T21:09:46.551Z,8.35
2019-02-14T21:12:12.948Z,10.75
2019-02-14T21:14:39.253Z,12.13
2019-02-14T21:17:05.542Z,9.95
2019-02-14T21:19:31.915Z,12.53
2019-02-14T21:22:01.722Z,9.50
2019-02-14T21:24:26.282Z,9.15
2019-02-14T21:26:52.626Z,12.15
2019-02-14T21:29:18.921Z,8.28
2019-02-14T21:31:45.255Z,10.15
2019-02-14T21:34:11.538Z,11.03
2019-02-14T21:36:38.023Z,13.72
2019-02-14T21:39:05.145Z,12.60
2019-02-14T21:41:31.430Z,13.40
2019-02-14T21:43:57.959Z,7.22
2019-02-14T21:46:24.326Z,7.80
2019-02-14T21:48:50.729Z,13.38
2019-02-14T21:51:17.518Z,9.38
2019-02-14T21:53:43.844Z,7.05
2019-02-14T21:56:10.243Z,9.65
2019-02-14T21:58:36.751Z,11.88
2019-02-14T22:01:03.044Z,9.23
2019-02-14T22:03:29.328Z,9.43
2019-02-14T22:05:55.741Z,10.53
2019-02-14T22:08:22.146Z,10.53
2019-02-14T22:10:48.651Z,7.67
2019-02-14T22:13:14.951Z,8.13
2019-02-14T22:15:41.246Z,9.40
2019-02-14T22:18:07.665Z,8.28
2019-02-14T22:20:33.952Z,6.83
2019-02-14T22:23:00.369Z,8.20
2019-02-14T22:25:26.665Z,8.08
2019-02-14T22:27:52.959Z,7.10
2019-02-14T22:30:19.351Z,8.60
2019-02-14T22:32:45.661Z,7.37
2019-02-14T22:35:12.463Z,8.43
2019-02-14T22:37:38.753Z,8.10
2019-02-14T22:40:08.058Z,8.45
2019-02-14T22:42:34.352Z,10.38
2019-02-14T22:45:00.657Z,10.00
2019-02-14T22:47:27.084Z,7.47
2019-02-14T22:49:53.419Z,10.23
2019-02-14T22:52:19.687Z,8.08
2019-02-14T22:54:46.002Z,7.08
2019-02-14T22:57:12.297Z,9.33
2019-02-14T22:59:38.594Z,9.73
2019-02-14T23:02:04.960Z,7.28
2019-02-14T23:04:31.241Z,12.43
2019-02-14T23:06:57.634Z,7.55
2019-02-14T23:09:24.047Z,8.80
2019-02-14T23:11:50.347Z,9.73
2019-02-14T23:14:16.787Z,12.03
2019-02-14T23:16:43.073Z,9.35
2019-02-14T23:19:09.358Z,8.88
2019-02-14T23:21:35.673Z,8.73
2019-02-14T23:24:01.969Z,9.68
2019-02-14T23:26:28.274Z,7.90
2019-02-14T23:28:54.565Z,9.50
2019-02-14T23:31:20.862Z,10.60
2019-02-14T23:33:47.181Z,9.50
2019-02-14T23:36:13.465Z,8.48
2019-02-14T23:38:39.892Z,9.35
2019-02-14T23:41:06.197Z,7.72
2019-02-14T23:43:32.594Z,9.53
2019-02-14T23:45:58.902Z,9.33
2019-02-14T23:48:25.210Z,8.10
2019-02-14T23:50:51.530Z,8.75
2019-02-14T23:53:17.824Z,8.15
2019-02-14T23:55:44.110Z,9.25
2019-02-14T23:58:10.424Z,8.10
